| Date | Time | Temp. (oF) | Dew Point (oF) | Rel. Hum. (%) | Press. (in.) | Wind Dir. | Wind Speed (mph) | Hourly Rainfall (in.) |
|
|---|---|---|---|---|---|---|---|---|---|
| 1 | 01/19 | 00:00 | 43 | 36 | 79 | 30.04 | NW | 1 | 0.00 |
| 2 | 01/18 | 23:00 | 44 | 37 | 77 | 30.04 | NW | 2 | 0.00 |
| 3 | 01/18 | 22:00 | 44 | 37 | 77 | 30.04 | NW | 4 | 0.00 |
| 4 | 01/18 | 21:00 | 45 | 37 | 76 | 30.05 | NW | 3 | 0.00 |
| 5 | 01/18 | 20:00 | 46 | 39 | 77 | 30.04 | NW | 4 | 0.00 |
| 6 | 01/18 | 19:00 | 46 | 38 | 74 | 30.04 | NW | 6 | 0.00 |
| 7 | 01/18 | 18:00 | 47 | 39 | 74 | 30.02 | NW | 5 | 0.00 |
| 8 | 01/18 | 17:00 | 47 | 39 | 74 | 29.99 | NW | 8 | 0.00 |
| 9 | 01/18 | 16:00 | 48 | 39 | 72 | 29.96 | NW | 9 | 0.00 |
| 10 | 01/18 | 15:00 | 49 | 41 | 74 | 29.94 | NW | 13 | 0.00 |
| 11 | 01/18 | 14:00 | 49 | 41 | 76 | 29.91 | NW | 12 | 0.00 |
| 12 | 01/18 | 13:00 | 49 | 45 | 87 | 29.90 | NW | 9 | 0.00 |
| 13 | 01/18 | 12:00 | 45 | 44 | 97 | 29.90 | WNW | 2 | 0.00 |
| 14 | 01/18 | 11:00 | 41 | 41 | 100 | 29.92 | WNW | 2 | 0.00 |
| 15 | 01/18 | 10:00 | 39 | 39 | 100 | 29.93 | WNW | 0 | 0.00 |
| 16 | 01/18 | 09:00 | 39 | 39 | 100 | 29.92 | WNW | 3 | 0.00 |
| 17 | 01/18 | 08:00 | 38 | 37 | 100 | 29.90 | WNW | 0 | 0.00 |
| 18 | 01/18 | 07:00 | 38 | 37 | 100 | 29.90 | WNW | 0 | 0.00 |
| 19 | 01/18 | 06:00 | 39 | 39 | 100 | 29.89 | WNW | 0 | 0.00 |
| 20 | 01/18 | 05:00 | 39 | 39 | 100 | 29.88 | WNW | 0 | 0.00 |
| 21 | 01/18 | 04:00 | 39 | 39 | 100 | 29.87 | WNW | 3 | 0.00 |
| 22 | 01/18 | 03:00 | 39 | 39 | 100 | 29.88 | WNW | 4 | 0.00 |
| 23 | 01/18 | 02:00 | 40 | 40 | 100 | 29.86 | WNW | 1 | 0.00 |
| 24 | 01/18 | 01:00 | 41 | 41 | 100 | 29.86 | WNW | 2 | 0.00 |